DLH4WU EKCH-EDDF
Flight info
| Callsign | DLH4WU |
|---|---|
| Flight time | 1h 6m |
| Altitude | 38000 |
| Route | NEXEN T503 GIMRU DCT MICOS DCT RIMET/N0448F310 T157 KOKEB/N0404F230 T157 KERAX KERAX5A |
| Aircraft | A321/M-SDE2E3FGIJ1LORWXYZ/HB1 |
Departure
| Time | 2026-05-05 15:21 |
|---|---|
| Airport | Copenhagen Kastrup Airport (EKCH) |
Arrival
| Time | 2026-05-05 16:27 |
|---|---|
| Airport | Frankfurt Main Airport (EDDF) |
| Time | Latitude | Longitude | Altitude | Speed | Heading |
|---|---|---|---|---|---|
| 2026-05-05 14:51 | 55.62810 | 12.64222 | 19 ft | 0 kts | 124° |
| 2026-05-05 15:10 | 55.62810 | 12.64221 | 17 ft | 1 kts | 124° |
| 2026-05-05 15:10 | 55.62824 | 12.64185 | 19 ft | 4 kts | 122° |
| 2026-05-05 15:10 | 55.62836 | 12.64144 | 19 ft | 4 kts | 103° |
| 2026-05-05 15:10 | 55.62836 | 12.64106 | 20 ft | 3 kts | 75° |
| 2026-05-05 15:11 | 55.62827 | 12.64062 | 19 ft | 4 kts | 67° |
| 2026-05-05 15:11 | 55.62819 | 12.64027 | 19 ft | 4 kts | 80° |
| 2026-05-05 15:11 | 55.62821 | 12.63981 | 19 ft | 4 kts | 105° |
| 2026-05-05 15:11 | 55.62826 | 12.63943 | 18 ft | 4 kts | 103° |
| 2026-05-05 15:12 | 55.62833 | 12.63897 | 17 ft | 4 kts | 103° |
| 2026-05-05 15:12 | 55.62836 | 12.63874 | 20 ft | 0 kts | 103° |
| 2026-05-05 15:14 | 55.62835 | 12.63883 | 21 ft | 3 kts | 103° |
| 2026-05-05 15:14 | 55.62816 | 12.63941 | 19 ft | 8 kts | 137° |
| 2026-05-05 15:14 | 55.62756 | 12.63936 | 17 ft | 10 kts | 207° |
| 2026-05-05 15:15 | 55.62689 | 12.63958 | 17 ft | 14 kts | 130° |
| 2026-05-05 15:15 | 55.62614 | 12.64154 | 17 ft | 24 kts | 123° |
| 2026-05-05 15:15 | 55.62521 | 12.64411 | 18 ft | 25 kts | 123° |
| 2026-05-05 15:15 | 55.62421 | 12.64677 | 17 ft | 26 kts | 123° |
| 2026-05-05 15:16 | 55.62319 | 12.64955 | 17 ft | 27 kts | 123° |
| 2026-05-05 15:16 | 55.62243 | 12.65157 | 17 ft | 12 kts | 125° |
| 2026-05-05 15:16 | 55.62174 | 12.65141 | 18 ft | 12 kts | 210° |
| 2026-05-05 15:16 | 55.62100 | 12.65059 | 18 ft | 13 kts | 213° |
| 2026-05-05 15:17 | 55.62017 | 12.64962 | 19 ft | 16 kts | 213° |
| 2026-05-05 15:17 | 55.61905 | 12.64831 | 17 ft | 21 kts | 213° |
| 2026-05-05 15:17 | 55.61777 | 12.64685 | 18 ft | 23 kts | 213° |
| 2026-05-05 15:17 | 55.61642 | 12.64529 | 17 ft | 24 kts | 213° |
| 2026-05-05 15:18 | 55.61500 | 12.64365 | 17 ft | 25 kts | 213° |
| 2026-05-05 15:18 | 55.61351 | 12.64193 | 18 ft | 26 kts | 213° |
| 2026-05-05 15:18 | 55.61241 | 12.64108 | 17 ft | 15 kts | 174° |
| 2026-05-05 15:18 | 55.61183 | 12.64238 | 17 ft | 15 kts | 87° |
| 2026-05-05 15:19 | 55.61206 | 12.64376 | 17 ft | 6 kts | 71° |
| 2026-05-05 15:19 | 55.61207 | 12.64382 | 18 ft | 0 kts | 71° |
| 2026-05-05 15:19 | 55.61209 | 12.64389 | 18 ft | 2 kts | 71° |
| 2026-05-05 15:19 | 55.61228 | 12.64486 | 18 ft | 15 kts | 71° |
| 2026-05-05 15:20 | 55.61267 | 12.64710 | 19 ft | 21 kts | 75° |
| 2026-05-05 15:20 | 55.61300 | 12.64834 | 18 ft | 3 kts | 42° |
| 2026-05-05 15:20 | 55.61300 | 12.64835 | 18 ft | 0 kts | 42° |
| 2026-05-05 15:20 | 55.61319 | 12.64864 | 18 ft | 12 kts | 42° |
| 2026-05-05 15:21 | 55.61599 | 12.65296 | 17 ft | 93 kts | 41° |
| 2026-05-05 15:21 | 55.62246 | 12.66312 | 153 ft | 141 kts | 40° |
| 2026-05-05 15:21 | 55.62944 | 12.67462 | 978 ft | 136 kts | 40° |
| 2026-05-05 15:21 | 55.63681 | 12.68635 | 1495 ft | 153 kts | 38° |
| 2026-05-05 15:22 | 55.64546 | 12.69954 | 1836 ft | 174 kts | 38° |
| 2026-05-05 15:22 | 55.65180 | 12.70914 | 2011 ft | 188 kts | 37° |
| 2026-05-05 15:22 | 55.66243 | 12.72482 | 2227 ft | 210 kts | 38° |
| 2026-05-05 15:22 | 55.67824 | 12.74804 | 2733 ft | 229 kts | 37° |
| 2026-05-05 15:23 | 55.68960 | 12.76857 | 3314 ft | 243 kts | 52° |
| 2026-05-05 15:23 | 55.69484 | 12.78668 | 3707 ft | 255 kts | 68° |
| 2026-05-05 15:23 | 55.69740 | 12.81838 | 4499 ft | 266 kts | 91° |
| 2026-05-05 15:23 | 55.69258 | 12.85065 | 5270 ft | 278 kts | 116° |
| 2026-05-05 15:24 | 55.68035 | 12.87747 | 6078 ft | 286 kts | 142° |
| 2026-05-05 15:24 | 55.66268 | 12.89370 | 6863 ft | 288 kts | 162° |
| 2026-05-05 15:24 | 55.64380 | 12.90580 | 7698 ft | 288 kts | 163° |
| 2026-05-05 15:24 | 55.62439 | 12.91336 | 8535 ft | 285 kts | 180° |
| 2026-05-05 15:25 | 55.60477 | 12.91010 | 9357 ft | 281 kts | 199° |
| 2026-05-05 15:25 | 55.58714 | 12.89702 | 10133 ft | 277 kts | 216° |
| 2026-05-05 15:25 | 55.57207 | 12.87525 | 10582 ft | 288 kts | 229° |
| 2026-05-05 15:25 | 55.55755 | 12.84869 | 10749 ft | 311 kts | 229° |
| 2026-05-05 15:26 | 55.54207 | 12.82013 | 10859 ft | 333 kts | 229° |
| 2026-05-05 15:26 | 55.52557 | 12.78978 | 11090 ft | 349 kts | 228° |
| 2026-05-05 15:26 | 55.50869 | 12.75843 | 11652 ft | 354 kts | 230° |
| 2026-05-05 15:26 | 55.49236 | 12.72574 | 12292 ft | 356 kts | 231° |
| 2026-05-05 15:27 | 55.47639 | 12.69215 | 12950 ft | 358 kts | 232° |
| 2026-05-05 15:27 | 55.46055 | 12.65816 | 13613 ft | 360 kts | 233° |
| 2026-05-05 15:27 | 55.44460 | 12.62383 | 14205 ft | 362 kts | 233° |
| 2026-05-05 15:27 | 55.42851 | 12.58944 | 14783 ft | 365 kts | 232° |
| 2026-05-05 15:28 | 55.41220 | 12.55496 | 15346 ft | 367 kts | 232° |
| 2026-05-05 15:28 | 55.39570 | 12.52040 | 15899 ft | 370 kts | 232° |
| 2026-05-05 15:28 | 55.37928 | 12.48618 | 16444 ft | 372 kts | 232° |
| 2026-05-05 15:28 | 55.36253 | 12.45131 | 16982 ft | 374 kts | 232° |
| 2026-05-05 15:29 | 55.34565 | 12.41626 | 17512 ft | 377 kts | 232° |
| 2026-05-05 15:29 | 55.32857 | 12.38087 | 18036 ft | 379 kts | 232° |
| 2026-05-05 15:29 | 55.31138 | 12.34535 | 18506 ft | 382 kts | 232° |
| 2026-05-05 15:29 | 55.29410 | 12.30975 | 18955 ft | 384 kts | 232° |
| 2026-05-05 15:30 | 55.27673 | 12.27396 | 19387 ft | 386 kts | 232° |
| 2026-05-05 15:30 | 55.25923 | 12.23788 | 19839 ft | 389 kts | 232° |
| 2026-05-05 15:30 | 55.24164 | 12.20164 | 20297 ft | 391 kts | 232° |
| 2026-05-05 15:30 | 55.22411 | 12.16557 | 20759 ft | 393 kts | 232° |
| 2026-05-05 15:31 | 55.20587 | 12.12973 | 21206 ft | 397 kts | 227° |
| 2026-05-05 15:31 | 55.18449 | 12.09862 | 21627 ft | 402 kts | 219° |
| 2026-05-05 15:31 | 55.16167 | 12.06951 | 22001 ft | 406 kts | 219° |
| 2026-05-05 15:31 | 55.13883 | 12.04031 | 22421 ft | 408 kts | 219° |
| 2026-05-05 15:32 | 55.11576 | 12.01084 | 22824 ft | 411 kts | 219° |
| 2026-05-05 15:32 | 55.09254 | 11.98119 | 23240 ft | 413 kts | 219° |
| 2026-05-05 15:32 | 55.06926 | 11.95144 | 23631 ft | 416 kts | 219° |
| 2026-05-05 15:32 | 55.04584 | 11.92155 | 23983 ft | 418 kts | 219° |
| 2026-05-05 15:33 | 55.02259 | 11.89197 | 24332 ft | 420 kts | 219° |
| 2026-05-05 15:33 | 54.99886 | 11.86191 | 24687 ft | 422 kts | 219° |
| 2026-05-05 15:33 | 54.97496 | 11.83171 | 25017 ft | 425 kts | 219° |
| 2026-05-05 15:33 | 54.95096 | 11.80142 | 25359 ft | 427 kts | 219° |
| 2026-05-05 15:34 | 54.92681 | 11.77100 | 25671 ft | 429 kts | 219° |
| 2026-05-05 15:34 | 54.90261 | 11.74056 | 25996 ft | 430 kts | 219° |
| 2026-05-05 15:34 | 54.87826 | 11.71000 | 26296 ft | 432 kts | 219° |
| 2026-05-05 15:34 | 54.85403 | 11.67958 | 26584 ft | 434 kts | 218° |
| 2026-05-05 15:35 | 54.82954 | 11.64881 | 26841 ft | 436 kts | 218° |
| 2026-05-05 15:35 | 54.80491 | 11.61789 | 27116 ft | 437 kts | 218° |
| 2026-05-05 15:35 | 54.78027 | 11.58700 | 27479 ft | 436 kts | 218° |
| 2026-05-05 15:35 | 54.75568 | 11.55626 | 27849 ft | 435 kts | 218° |
| 2026-05-05 15:36 | 54.73111 | 11.52563 | 28226 ft | 435 kts | 218° |
| 2026-05-05 15:36 | 54.70655 | 11.49515 | 28604 ft | 433 kts | 219° |
| 2026-05-05 15:36 | 54.68218 | 11.46499 | 29130 ft | 428 kts | 219° |
| 2026-05-05 15:36 | 54.65808 | 11.43515 | 29606 ft | 425 kts | 219° |
| 2026-05-05 15:37 | 54.63406 | 11.40536 | 30001 ft | 424 kts | 219° |
| 2026-05-05 15:37 | 54.61035 | 11.37600 | 30332 ft | 422 kts | 219° |
| 2026-05-05 15:37 | 54.58639 | 11.34645 | 30648 ft | 422 kts | 218° |
| 2026-05-05 15:37 | 54.56246 | 11.31695 | 30904 ft | 423 kts | 218° |
| 2026-05-05 15:38 | 54.53843 | 11.28735 | 31183 ft | 423 kts | 218° |
| 2026-05-05 15:38 | 54.51440 | 11.25794 | 31478 ft | 423 kts | 218° |
| 2026-05-05 15:38 | 54.49040 | 11.22872 | 31785 ft | 423 kts | 218° |
| 2026-05-05 15:38 | 54.46646 | 11.19971 | 32159 ft | 418 kts | 219° |
| 2026-05-05 15:39 | 54.44278 | 11.17106 | 32617 ft | 414 kts | 219° |
| 2026-05-05 15:39 | 54.41923 | 11.14257 | 32975 ft | 412 kts | 219° |
| 2026-05-05 15:39 | 54.39600 | 11.11445 | 33290 ft | 411 kts | 219° |
| 2026-05-05 15:39 | 54.37258 | 11.08616 | 33595 ft | 411 kts | 219° |
| 2026-05-05 15:40 | 54.34922 | 11.05796 | 33895 ft | 411 kts | 219° |
| 2026-05-05 15:40 | 54.32556 | 11.03050 | 34129 ft | 413 kts | 214° |
| 2026-05-05 15:40 | 54.29950 | 11.00887 | 34349 ft | 419 kts | 205° |
| 2026-05-05 15:40 | 54.27131 | 10.99521 | 34554 ft | 425 kts | 195° |
| 2026-05-05 15:41 | 54.24197 | 10.98701 | 34742 ft | 427 kts | 195° |
| 2026-05-05 15:41 | 54.21294 | 10.97903 | 35021 ft | 425 kts | 195° |
| 2026-05-05 15:41 | 54.18379 | 10.97095 | 35275 ft | 424 kts | 195° |
| 2026-05-05 15:41 | 54.15468 | 10.96281 | 35503 ft | 424 kts | 195° |
| 2026-05-05 15:42 | 54.12558 | 10.95458 | 35720 ft | 424 kts | 195° |
| 2026-05-05 15:42 | 54.09636 | 10.94631 | 35937 ft | 424 kts | 195° |
| 2026-05-05 15:42 | 54.06715 | 10.93806 | 36147 ft | 425 kts | 194° |
| 2026-05-05 15:42 | 54.03795 | 10.92984 | 36348 ft | 425 kts | 194° |
| 2026-05-05 15:43 | 54.00872 | 10.92164 | 36546 ft | 425 kts | 194° |
| 2026-05-05 15:43 | 53.97951 | 10.91347 | 36768 ft | 424 kts | 194° |
| 2026-05-05 15:43 | 53.95041 | 10.90539 | 37004 ft | 423 kts | 194° |
| 2026-05-05 15:43 | 53.92163 | 10.89743 | 37196 ft | 423 kts | 194° |
| 2026-05-05 15:44 | 53.89258 | 10.88936 | 37363 ft | 423 kts | 194° |
| 2026-05-05 15:44 | 53.86341 | 10.88125 | 37533 ft | 423 kts | 194° |
| 2026-05-05 15:44 | 53.83428 | 10.87312 | 37688 ft | 424 kts | 194° |
| 2026-05-05 15:44 | 53.80518 | 10.86503 | 37864 ft | 423 kts | 193° |
| 2026-05-05 15:45 | 53.77603 | 10.85696 | 37924 ft | 426 kts | 193° |
| 2026-05-05 15:45 | 53.71738 | 10.84083 | 37921 ft | 428 kts | 193° |
| 2026-05-05 15:46 | 53.65858 | 10.82481 | 37919 ft | 428 kts | 193° |
| 2026-05-05 15:46 | 53.59969 | 10.80872 | 37917 ft | 428 kts | 193° |
| 2026-05-05 15:47 | 53.54090 | 10.79261 | 37918 ft | 428 kts | 193° |
| 2026-05-05 15:47 | 53.48233 | 10.77647 | 37904 ft | 429 kts | 193° |
| 2026-05-05 15:48 | 53.42319 | 10.76030 | 37903 ft | 430 kts | 193° |
| 2026-05-05 15:48 | 53.36422 | 10.74437 | 37913 ft | 431 kts | 193° |
| 2026-05-05 15:49 | 53.30487 | 10.72844 | 37921 ft | 432 kts | 193° |
| 2026-05-05 15:49 | 53.24544 | 10.71230 | 37898 ft | 432 kts | 193° |
| 2026-05-05 15:50 | 53.18591 | 10.69626 | 37916 ft | 433 kts | 193° |
| 2026-05-05 15:50 | 53.12642 | 10.68027 | 37924 ft | 433 kts | 193° |
| 2026-05-05 15:51 | 53.06680 | 10.66442 | 37924 ft | 433 kts | 193° |
| 2026-05-05 15:51 | 53.00760 | 10.64869 | 37924 ft | 433 kts | 193° |
| 2026-05-05 15:52 | 52.94793 | 10.63280 | 37925 ft | 433 kts | 193° |
| 2026-05-05 15:52 | 52.88830 | 10.61689 | 37926 ft | 433 kts | 193° |
| 2026-05-05 15:53 | 52.82897 | 10.60115 | 37923 ft | 433 kts | 193° |
| 2026-05-05 15:53 | 52.76931 | 10.58555 | 37904 ft | 433 kts | 193° |
| 2026-05-05 15:54 | 52.70971 | 10.56991 | 37916 ft | 432 kts | 193° |
| 2026-05-05 15:54 | 52.65032 | 10.55418 | 37919 ft | 432 kts | 193° |
| 2026-05-05 15:55 | 52.59134 | 10.53873 | 37919 ft | 431 kts | 193° |
| 2026-05-05 15:55 | 52.53201 | 10.52330 | 37895 ft | 431 kts | 193° |
| 2026-05-05 15:56 | 52.47282 | 10.50803 | 37908 ft | 429 kts | 193° |
| 2026-05-05 15:56 | 52.41392 | 10.49260 | 37916 ft | 428 kts | 193° |
| 2026-05-05 15:57 | 52.35505 | 10.47736 | 37918 ft | 428 kts | 193° |
| 2026-05-05 15:57 | 52.29625 | 10.46216 | 37903 ft | 427 kts | 193° |
| 2026-05-05 15:58 | 52.23795 | 10.44718 | 37923 ft | 426 kts | 193° |
| 2026-05-05 15:58 | 52.17933 | 10.43212 | 37914 ft | 424 kts | 193° |
| 2026-05-05 15:59 | 52.12097 | 10.41711 | 37906 ft | 424 kts | 193° |
| 2026-05-05 15:59 | 52.06291 | 10.40225 | 37884 ft | 424 kts | 192° |
| 2026-05-05 16:00 | 52.00466 | 10.38754 | 37873 ft | 423 kts | 192° |
| 2026-05-05 16:00 | 51.94684 | 10.37287 | 37877 ft | 422 kts | 192° |
| 2026-05-05 16:01 | 51.88878 | 10.35808 | 37870 ft | 421 kts | 192° |
| 2026-05-05 16:01 | 51.83100 | 10.34346 | 37869 ft | 421 kts | 192° |
| 2026-05-05 16:02 | 51.77311 | 10.32896 | 37860 ft | 420 kts | 192° |
| 2026-05-05 16:02 | 51.71522 | 10.31449 | 37857 ft | 420 kts | 192° |
| 2026-05-05 16:03 | 51.66718 | 10.30237 | 37857 ft | 420 kts | 192° |
| 2026-05-05 16:03 | 51.59992 | 10.28545 | 37852 ft | 420 kts | 192° |
| 2026-05-05 16:04 | 51.55181 | 10.27353 | 37843 ft | 419 kts | 191° |
| 2026-05-05 16:04 | 51.49405 | 10.25928 | 37844 ft | 419 kts | 191° |
| 2026-05-05 16:05 | 51.43633 | 10.24496 | 37844 ft | 419 kts | 191° |
| 2026-05-05 16:05 | 51.37888 | 10.23062 | 37517 ft | 414 kts | 191° |
| 2026-05-05 16:05 | 51.35043 | 10.22357 | 37217 ft | 411 kts | 191° |
| 2026-05-05 16:06 | 51.32203 | 10.21917 | 36942 ft | 410 kts | 183° |
| 2026-05-05 16:06 | 51.29385 | 10.21863 | 36675 ft | 408 kts | 183° |
| 2026-05-05 16:06 | 51.26548 | 10.21813 | 36404 ft | 406 kts | 183° |
| 2026-05-05 16:06 | 51.23722 | 10.21757 | 36137 ft | 404 kts | 183° |
| 2026-05-05 16:07 | 51.20916 | 10.21696 | 35877 ft | 402 kts | 183° |
| 2026-05-05 16:07 | 51.18118 | 10.21634 | 35619 ft | 400 kts | 183° |
| 2026-05-05 16:07 | 51.15336 | 10.21576 | 35361 ft | 398 kts | 183° |
| 2026-05-05 16:07 | 51.12572 | 10.21522 | 35099 ft | 396 kts | 183° |
| 2026-05-05 16:08 | 51.09819 | 10.21474 | 34850 ft | 395 kts | 183° |
| 2026-05-05 16:08 | 51.07070 | 10.21428 | 34596 ft | 393 kts | 182° |
| 2026-05-05 16:08 | 51.04373 | 10.21380 | 34353 ft | 391 kts | 183° |
| 2026-05-05 16:08 | 51.01644 | 10.21330 | 33835 ft | 393 kts | 183° |
| 2026-05-05 16:09 | 50.98913 | 10.21278 | 33308 ft | 390 kts | 182° |
| 2026-05-05 16:09 | 50.96216 | 10.21226 | 32804 ft | 386 kts | 182° |
| 2026-05-05 16:09 | 50.93543 | 10.21178 | 32281 ft | 383 kts | 182° |
| 2026-05-05 16:09 | 50.90889 | 10.21136 | 31778 ft | 380 kts | 182° |
| 2026-05-05 16:10 | 50.88232 | 10.21093 | 30791 ft | 388 kts | 182° |
| 2026-05-05 16:10 | 50.85500 | 10.20799 | 29773 ft | 396 kts | 190° |
| 2026-05-05 16:10 | 50.82811 | 10.19630 | 28491 ft | 406 kts | 202° |
| 2026-05-05 16:10 | 50.80306 | 10.17462 | 27432 ft | 413 kts | 214° |
| 2026-05-05 16:11 | 50.78185 | 10.14466 | 26641 ft | 415 kts | 226° |
| 2026-05-05 16:11 | 50.73868 | 10.02512 | 23728 ft | 429 kts | 241° |
| 2026-05-05 16:12 | 50.72505 | 9.98261 | 22527 ft | 437 kts | 241° |
| 2026-05-05 16:12 | 50.69769 | 9.89740 | 20802 ft | 430 kts | 241° |
| 2026-05-05 16:13 | 50.65711 | 9.77163 | 17841 ft | 427 kts | 242° |
| 2026-05-05 16:13 | 50.64333 | 9.73021 | 16881 ft | 422 kts | 237° |
| 2026-05-05 16:13 | 50.62567 | 9.69384 | 15976 ft | 415 kts | 225° |
| 2026-05-05 16:14 | 50.57852 | 9.64499 | 14262 ft | 404 kts | 201° |
| 2026-05-05 16:14 | 50.52634 | 9.61333 | 12593 ft | 397 kts | 200° |
| 2026-05-05 16:15 | 50.47555 | 9.58315 | 10941 ft | 388 kts | 200° |
| 2026-05-05 16:15 | 50.42569 | 9.55350 | 9376 ft | 378 kts | 200° |
| 2026-05-05 16:16 | 50.37694 | 9.52481 | 7649 ft | 369 kts | 200° |
| 2026-05-05 16:16 | 50.32933 | 9.49738 | 6551 ft | 362 kts | 200° |
| 2026-05-05 16:17 | 50.28093 | 9.47341 | 6545 ft | 367 kts | 188° |
| 2026-05-05 16:17 | 50.25572 | 9.46718 | 6547 ft | 367 kts | 193° |
| 2026-05-05 16:18 | 50.21077 | 9.43279 | 6553 ft | 366 kts | 219° |
| 2026-05-05 16:18 | 50.19271 | 9.40484 | 6548 ft | 366 kts | 232° |
| 2026-05-05 16:18 | 50.17611 | 9.33182 | 5560 ft | 360 kts | 269° |
| 2026-05-05 16:19 | 50.17968 | 9.29335 | 4751 ft | 358 kts | 281° |
| 2026-05-05 16:19 | 50.18487 | 9.25551 | 4168 ft | 354 kts | 280° |
| 2026-05-05 16:19 | 50.17991 | 9.18048 | 3983 ft | 353 kts | 249° |
| 2026-05-05 16:20 | 50.16329 | 9.10905 | 3984 ft | 343 kts | 249° |
| 2026-05-05 16:20 | 50.14802 | 9.04389 | 3984 ft | 299 kts | 249° |
| 2026-05-05 16:21 | 50.13439 | 8.98630 | 3990 ft | 268 kts | 248° |
| 2026-05-05 16:22 | 50.11621 | 8.90874 | 3998 ft | 236 kts | 249° |
| 2026-05-05 16:22 | 50.10564 | 8.86374 | 3979 ft | 207 kts | 248° |
| 2026-05-05 16:23 | 50.09597 | 8.82268 | 3545 ft | 195 kts | 249° |
| 2026-05-05 16:23 | 50.09136 | 8.80315 | 3297 ft | 189 kts | 249° |
| 2026-05-05 16:23 | 50.08264 | 8.76623 | 2823 ft | 175 kts | 249° |
| 2026-05-05 16:24 | 50.07851 | 8.74874 | 2572 ft | 168 kts | 249° |
| 2026-05-05 16:24 | 50.07465 | 8.73238 | 2382 ft | 154 kts | 250° |
| 2026-05-05 16:24 | 50.06775 | 8.70327 | 1986 ft | 135 kts | 250° |
| 2026-05-05 16:25 | 50.06452 | 8.68965 | 1810 ft | 134 kts | 249° |
| 2026-05-05 16:25 | 50.05806 | 8.66238 | 1449 ft | 133 kts | 250° |
| 2026-05-05 16:25 | 50.05486 | 8.64893 | 1271 ft | 132 kts | 249° |
| 2026-05-05 16:26 | 50.04842 | 8.62182 | 891 ft | 132 kts | 251° |
| 2026-05-05 16:26 | 50.04199 | 8.59479 | 521 ft | 133 kts | 248° |
| 2026-05-05 16:27 | 50.03877 | 8.58140 | 388 ft | 132 kts | 251° |
| 2026-05-05 16:27 | 50.03593 | 8.56921 | 355 ft | 99 kts | 250° |
| 2026-05-05 16:27 | 50.03427 | 8.56205 | 354 ft | 34 kts | 255° |
| 2026-05-05 16:27 | 50.03453 | 8.55917 | 348 ft | 23 kts | 279° |
| 2026-05-05 16:28 | 50.03476 | 8.55701 | 345 ft | 18 kts | 279° |
| 2026-05-05 16:28 | 50.03491 | 8.55515 | 346 ft | 18 kts | 269° |
| 2026-05-05 16:28 | 50.03456 | 8.55323 | 350 ft | 20 kts | 248° |
| 2026-05-05 16:28 | 50.03407 | 8.55112 | 345 ft | 22 kts | 250° |
| 2026-05-05 16:29 | 50.03352 | 8.54877 | 339 ft | 24 kts | 249° |
| 2026-05-05 16:29 | 50.03293 | 8.54627 | 337 ft | 18 kts | 250° |
| 2026-05-05 16:29 | 50.03313 | 8.54486 | 336 ft | 13 kts | 326° |
| 2026-05-05 16:29 | 50.03420 | 8.54419 | 351 ft | 21 kts | 340° |
| 2026-05-05 16:30 | 50.03555 | 8.54342 | 348 ft | 19 kts | 340° |
| 2026-05-05 16:30 | 50.03596 | 8.54319 | 351 ft | 0 kts | 340° |
| 2026-05-05 16:31 | 50.03623 | 8.54309 | 349 ft | 9 kts | 355° |
| 2026-05-05 16:31 | 50.03683 | 8.54419 | 349 ft | 20 kts | 69° |
| 2026-05-05 16:32 | 50.03735 | 8.54640 | 351 ft | 22 kts | 70° |
| 2026-05-05 16:32 | 50.03779 | 8.54830 | 347 ft | 6 kts | 69° |
| 2026-05-05 16:32 | 50.03782 | 8.54841 | 353 ft | 0 kts | 69° |
| 2026-05-05 16:33 | 50.03788 | 8.54865 | 353 ft | 4 kts | 69° |
| 2026-05-05 16:33 | 50.03801 | 8.54921 | 355 ft | 6 kts | 69° |
| 2026-05-05 16:33 | 50.03818 | 8.54992 | 356 ft | 8 kts | 70° |
| 2026-05-05 16:33 | 50.03840 | 8.55085 | 351 ft | 13 kts | 70° |
| 2026-05-05 16:34 | 50.03878 | 8.55240 | 351 ft | 17 kts | 69° |
| 2026-05-05 16:34 | 50.03920 | 8.55415 | 350 ft | 18 kts | 70° |
| 2026-05-05 16:34 | 50.03967 | 8.55613 | 358 ft | 21 kts | 70° |
| 2026-05-05 16:34 | 50.04011 | 8.55795 | 359 ft | 8 kts | 70° |
| 2026-05-05 16:35 | 50.04013 | 8.55807 | 358 ft | 0 kts | 70° |
| 2026-05-05 16:35 | 50.04014 | 8.55809 | 357 ft | 1 kts | 70° |
| 2026-05-05 16:36 | 50.04018 | 8.55826 | 355 ft | 3 kts | 70° |
| 2026-05-05 16:36 | 50.04026 | 8.55861 | 358 ft | 4 kts | 70° |
| 2026-05-05 16:36 | 50.04033 | 8.55891 | 353 ft | 0 kts | 70° |
| 2026-05-05 16:38 | 50.04034 | 8.55897 | 352 ft | 3 kts | 70° |
| 2026-05-05 16:38 | 50.04068 | 8.55962 | 354 ft | 9 kts | 27° |
| 2026-05-05 16:38 | 50.04131 | 8.55949 | 354 ft | 10 kts | 341° |
| 2026-05-05 16:38 | 50.04164 | 8.55930 | 356 ft | 0 kts | 340° |
| 2026-05-05 16:39 | 50.04168 | 8.55928 | 357 ft | 4 kts | 340° |
| 2026-05-05 16:39 | 50.04223 | 8.55942 | 361 ft | 12 kts | 33° |
| 2026-05-05 16:39 | 50.04278 | 8.56051 | 357 ft | 13 kts | 40° |
| 2026-05-05 16:40 | 50.04367 | 8.56043 | 359 ft | 14 kts | 341° |
| 2026-05-05 16:40 | 50.04442 | 8.56087 | 361 ft | 14 kts | 61° |
| 2026-05-05 16:40 | 50.04480 | 8.56235 | 359 ft | 16 kts | 70° |
| 2026-05-05 16:40 | 50.04520 | 8.56405 | 359 ft | 14 kts | 70° |
| 2026-05-05 16:41 | 50.04527 | 8.56420 | 358 ft | 3 kts | 44° |
| 2026-05-05 16:41 | 50.04570 | 8.56455 | 359 ft | 9 kts | 26° |
| 2026-05-05 16:41 | 50.04608 | 8.56513 | 363 ft | 8 kts | 91° |
| 2026-05-05 16:41 | 50.04590 | 8.56585 | 359 ft | 2 kts | 113° |
| 2026-05-05 16:42 | 50.04584 | 8.56609 | 361 ft | 1 kts | 114° |
| 2026-05-05 16:42 | 50.04580 | 8.56621 | 360 ft | 1 kts | 114° |
| 2026-05-05 16:42 | 50.04579 | 8.56625 | 360 ft | 0 kts | 114° |